Kalama, Washington
Current Conditions -  °F | °C
As of 3:15 PM on Thursday 27 Nov 2014 (Local Time) from KKLS Reporting Station
Broken Clouds Broken Clouds  
Wind Chill: 55°   Ceiling: 4400
Heat Index: 55°   Visibility: 10mi
Dew Point: 50°   Wind: 13mph
Humidity: 82%   Direction: 150°SSE
Pressure: 29.91"   Gusts: 20mph
Location:  46.01°N, 122.84°W
Report Text: KKLS 272315Z 15011G17KT 10SM FEW014 SCT037 BKN044 13/10 A2991 RMK AO1 P0001
Loading
Personal Weather Stations






























Interactive Weather Map New forecast layout! Learn more

10-Day Weather Forecast

Advertisements
Track Severe Weather on mobile